createdAt,value
2023-04-20T00:00:34.919Z,952.9492
2023-04-20T00:01:36.338Z,952.9323
2023-04-20T00:02:37.847Z,952.9246
2023-04-20T00:03:39.325Z,952.9169
2023-04-20T00:04:40.679Z,952.8815
2023-04-20T00:05:42.018Z,952.8516
2023-04-20T00:06:43.465Z,952.8162
2023-04-20T00:07:44.875Z,952.8077
2023-04-20T00:08:46.234Z,952.7923
2023-04-20T00:09:47.693Z,952.7869
2023-04-20T00:10:49.143Z,952.8015
2023-04-20T00:11:50.581Z,952.7631
2023-04-20T00:12:52.002Z,952.7485
2023-04-20T00:13:53.460Z,952.7062
2023-04-20T00:14:54.807Z,952.7062
2023-04-20T00:15:56.255Z,952.6862
2023-04-20T00:16:57.787Z,952.6677
2023-04-20T00:17:59.213Z,952.6154
2023-04-20T00:19:00.566Z,952.5900
2023-04-20T00:20:02.008Z,952.5923
2023-04-20T00:21:03.406Z,952.5984
2023-04-20T00:22:04.839Z,952.6015
2023-04-20T00:23:06.265Z,952.6108
2023-04-20T00:24:07.741Z,952.6108
2023-04-20T00:25:09.163Z,952.6008
2023-04-20T00:26:10.538Z,952.5885
2023-04-20T00:27:12.043Z,952.5731
2023-04-20T00:28:13.451Z,952.5600
2023-04-20T00:29:15.023Z,952.5292
2023-04-20T00:30:16.403Z,952.4985
2023-04-20T00:31:17.794Z,952.4508
2023-04-20T00:32:19.157Z,952.4061
2023-04-20T00:33:20.599Z,952.3815
2023-04-20T00:34:22.082Z,952.3785
2023-04-20T00:35:23.478Z,952.3738
2023-04-20T00:36:24.921Z,952.3708
2023-04-20T00:37:26.347Z,952.3484
2023-04-20T00:38:27.803Z,952.3177
2023-04-20T00:39:29.296Z,952.2869
2023-04-20T00:40:30.666Z,952.2777
2023-04-20T00:41:31.980Z,952.2592
2023-04-20T00:42:33.484Z,952.2261
2023-04-20T00:43:34.874Z,952.1785
2023-04-20T00:44:36.386Z,952.1447
2023-04-20T00:45:37.799Z,952.1123
2023-04-20T00:46:39.248Z,952.1077
2023-04-20T00:47:40.691Z,952.1046
2023-04-20T00:48:42.033Z,952.0630
2023-04-20T00:49:43.523Z,952.0638
2023-04-20T00:50:44.950Z,952.0515
2023-04-20T00:51:46.353Z,952.0492
2023-04-20T00:52:47.831Z,952.0592
2023-04-20T00:53:49.227Z,952.0692
2023-04-20T00:54:50.691Z,952.0600
2023-04-20T00:55:52.150Z,952.0500
2023-04-20T00:56:53.606Z,952.0438
2023-04-20T00:57:54.962Z,952.0316
2023-04-20T00:58:56.383Z,952.0361
2023-04-20T00:59:57.909Z,952.0415
2023-04-20T01:00:59.212Z,952.0239
2023-04-20T01:02:00.748Z,952.0277
2023-04-20T01:03:02.117Z,951.9969
2023-04-20T01:04:03.589Z,951.9330
2023-04-20T01:05:04.955Z,951.8969
2023-04-20T01:06:06.394Z,951.8831
2023-04-20T01:07:07.859Z,951.8669
2023-04-20T01:08:09.275Z,951.8600
2023-04-20T01:09:10.659Z,951.8630
2023-04-20T01:10:12.164Z,951.8469
2023-04-20T01:11:13.588Z,951.8400
2023-04-20T01:12:14.962Z,951.8408
2023-04-20T01:13:16.377Z,951.8277
2023-04-20T01:14:17.793Z,951.8377
2023-04-20T01:15:19.318Z,951.8339
2023-04-20T01:16:20.724Z,951.8254
2023-04-20T01:17:22.131Z,951.8023
2023-04-20T01:18:23.586Z,951.7747
2023-04-20T01:19:24.919Z,951.7600
2023-04-20T01:20:26.392Z,951.7523
2023-04-20T01:21:27.864Z,951.7354
2023-04-20T01:22:29.212Z,951.7092
2023-04-20T01:23:30.687Z,951.6723
2023-04-20T01:24:32.161Z,951.6447
2023-04-20T01:25:33.572Z,951.6323
2023-04-20T01:26:35.042Z,951.6262
2023-04-20T01:27:36.392Z,951.6146
2023-04-20T01:28:37.854Z,951.6177
2023-04-20T01:29:39.318Z,951.5916
2023-04-20T01:30:40.735Z,951.5585
2023-04-20T01:31:42.186Z,951.5469
2023-04-20T01:32:43.610Z,951.5331
2023-04-20T01:33:44.997Z,951.5123
2023-04-20T01:34:46.435Z,951.5023
2023-04-20T01:35:47.893Z,951.4815
2023-04-20T01:36:49.240Z,951.4323
2023-04-20T01:37:50.711Z,951.4185
2023-04-20T01:38:52.214Z,951.4131
2023-04-20T01:39:53.708Z,951.3892
2023-04-20T01:40:55.055Z,951.3915
2023-04-20T01:41:56.559Z,951.4069
2023-04-20T01:42:58.005Z,951.4031
2023-04-20T01:43:59.375Z,951.3969
2023-04-20T01:45:00.829Z,951.3954
2023-04-20T01:46:02.220Z,951.4031
2023-04-20T01:47:03.717Z,951.4100
2023-04-20T01:48:05.082Z,951.4192
2023-04-20T01:49:06.542Z,951.4285
2023-04-20T01:50:07.931Z,951.4169
2023-04-20T01:51:09.401Z,951.3900
2023-04-20T01:52:10.838Z,951.3484
2023-04-20T01:53:12.273Z,951.3138
2023-04-20T01:54:13.700Z,951.2677
2023-04-20T01:55:15.220Z,951.2577
2023-04-20T01:56:16.686Z,951.2208
2023-04-20T01:57:18.161Z,951.1800
2023-04-20T01:58:19.515Z,951.1516
2023-04-20T01:59:21.008Z,951.1431
2023-04-20T02:00:22.387Z,951.1370
2023-04-20T02:01:23.820Z,951.1392
2023-04-20T02:02:25.461Z,951.1254
2023-04-20T02:03:26.716Z,951.1146
2023-04-20T02:04:28.135Z,951.1285
2023-04-20T02:05:29.579Z,951.1431
2023-04-20T02:06:30.987Z,951.1638
2023-04-20T02:07:32.515Z,951.1846
2023-04-20T02:08:33.741Z,951.1992
2023-04-20T02:09:35.260Z,951.2008
2023-04-20T02:10:36.711Z,951.2015
2023-04-20T02:11:38.125Z,951.2077
2023-04-20T02:12:39.629Z,951.1954
2023-04-20T02:13:41.049Z,951.1792
2023-04-20T02:14:42.473Z,951.1462
2023-04-20T02:15:43.932Z,951.0900
2023-04-20T02:16:45.327Z,951.0493
2023-04-20T02:17:46.783Z,951.0077
2023-04-20T02:18:48.064Z,950.9861
2023-04-20T02:19:49.555Z,950.9623
2023-04-20T02:20:50.900Z,950.9539
2023-04-20T02:21:52.415Z,950.9261
2023-04-20T02:22:53.951Z,950.9254
2023-04-20T02:23:55.456Z,950.9308
2023-04-20T02:24:56.750Z,950.9515
2023-04-20T02:25:58.173Z,950.9753
2023-04-20T02:26:59.593Z,950.9900
2023-04-20T02:28:01.092Z,950.9823
2023-04-20T02:29:02.475Z,950.9615
2023-04-20T02:30:03.923Z,950.9354
2023-04-20T02:31:05.338Z,950.9215
2023-04-20T02:32:06.656Z,950.8908
2023-04-20T02:33:08.254Z,950.8692
2023-04-20T02:34:09.735Z,950.8531
2023-04-20T02:35:11.020Z,950.8239
2023-04-20T02:36:12.598Z,950.8062
2023-04-20T02:37:13.908Z,950.8030
2023-04-20T02:38:15.391Z,950.7938
2023-04-20T02:39:17.031Z,950.7861
2023-04-20T02:40:18.232Z,950.7747
2023-04-20T02:41:19.647Z,950.7570
2023-04-20T02:42:21.004Z,950.7177
2023-04-20T02:43:22.435Z,950.6892
2023-04-20T02:44:23.938Z,950.6761
2023-04-20T02:45:25.349Z,950.6608
2023-04-20T02:46:26.787Z,950.6254
2023-04-20T02:47:28.234Z,950.5831
2023-04-20T02:48:29.724Z,950.5592
2023-04-20T02:49:31.054Z,950.5677
2023-04-20T02:50:32.482Z,950.5823
2023-04-20T02:51:33.921Z,950.5877
2023-04-20T02:52:35.253Z,950.6331
2023-04-20T02:53:36.799Z,950.6292
2023-04-20T02:54:38.200Z,950.6085
2023-04-20T02:55:39.677Z,950.5854
2023-04-20T02:56:41.061Z,950.5508
2023-04-20T02:57:42.506Z,950.5554
2023-04-20T02:58:43.968Z,950.5477
2023-04-20T02:59:45.342Z,950.5538
2023-04-20T03:00:46.796Z,950.5308
2023-04-20T03:01:48.203Z,950.5292
2023-04-20T03:02:49.830Z,950.5531
2023-04-20T03:03:51.331Z,950.5831
2023-04-20T03:04:52.728Z,950.6146
2023-04-20T03:05:55.181Z,950.6354
2023-04-20T03:06:55.365Z,950.6254
2023-04-20T03:07:56.904Z,950.6308
2023-04-20T03:08:58.248Z,950.6169
2023-04-20T03:09:59.661Z,950.6254
2023-04-20T03:11:01.124Z,950.6423
2023-04-20T03:12:02.541Z,950.6331
2023-04-20T03:13:03.941Z,950.6177
2023-04-20T03:14:05.429Z,950.5700
2023-04-20T03:15:06.802Z,950.5685
2023-04-20T03:16:08.365Z,950.5715
2023-04-20T03:17:09.683Z,950.5461
2023-04-20T03:18:11.010Z,950.5200
2023-04-20T03:19:12.570Z,950.5054
2023-04-20T03:20:13.878Z,950.4769
2023-04-20T03:21:15.459Z,950.4539
2023-04-20T03:22:16.798Z,950.4277
2023-04-20T03:23:18.186Z,950.4161
2023-04-20T03:24:19.672Z,950.3923
2023-04-20T03:25:20.990Z,950.4031
2023-04-20T03:26:22.531Z,950.3792
2023-04-20T03:27:23.985Z,950.3654
2023-04-20T03:28:25.326Z,950.3669
2023-04-20T03:29:26.896Z,950.3439
2023-04-20T03:30:28.249Z,950.3538
2023-04-20T03:31:29.753Z,950.3839
2023-04-20T03:32:32.722Z,950.3870
2023-04-20T03:33:32.564Z,950.3954
2023-04-20T03:34:34.053Z,950.4223
2023-04-20T03:35:35.411Z,950.4531
2023-04-20T03:36:36.817Z,950.4700
2023-04-20T03:37:38.292Z,950.4923
2023-04-20T03:38:39.654Z,950.4823
2023-04-20T03:39:41.157Z,950.4546
2023-04-20T03:40:42.569Z,950.4269
2023-04-20T03:41:44.022Z,950.3931
2023-04-20T03:42:45.359Z,950.3947
2023-04-20T03:43:46.761Z,950.3947
2023-04-20T03:44:48.320Z,950.4000
2023-04-20T03:45:49.739Z,950.3823
2023-04-20T03:46:51.149Z,950.3738
2023-04-20T03:47:52.612Z,950.3569
2023-04-20T03:48:54.034Z,950.3416
2023-04-20T03:49:55.488Z,950.3192
2023-04-20T03:50:56.824Z,950.3130
2023-04-20T03:51:58.326Z,950.2800
2023-04-20T03:52:59.681Z,950.2646
2023-04-20T03:54:01.192Z,950.2338
2023-04-20T03:55:02.603Z,950.2261
2023-04-20T03:56:03.962Z,950.2253
2023-04-20T03:57:05.364Z,950.2184
2023-04-20T03:58:06.897Z,950.2385
2023-04-20T03:59:08.213Z,950.2369
2023-04-20T04:00:09.698Z,950.2261
2023-04-20T04:01:11.118Z,950.2261
2023-04-20T04:02:12.525Z,950.2215
2023-04-20T04:03:14.153Z,950.2315
2023-04-20T04:04:15.541Z,950.2346
2023-04-20T04:05:16.915Z,950.2200
2023-04-20T04:06:18.240Z,950.2131
2023-04-20T04:07:19.632Z,950.2269
2023-04-20T04:08:21.002Z,950.2623
2023-04-20T04:09:22.629Z,950.2831
2023-04-20T04:10:24.013Z,950.2923
2023-04-20T04:11:25.446Z,950.2946
2023-04-20T04:12:26.892Z,950.2662
2023-04-20T04:13:28.203Z,950.2546
2023-04-20T04:14:29.544Z,950.2538
2023-04-20T04:15:31.050Z,950.2608
2023-04-20T04:16:32.620Z,950.2854
2023-04-20T04:17:33.896Z,950.3038
2023-04-20T04:18:35.393Z,950.3146
2023-04-20T04:19:36.821Z,950.2954
2023-04-20T04:20:38.298Z,950.2700
2023-04-20T04:21:39.720Z,950.2323
2023-04-20T04:22:41.013Z,950.1962
2023-04-20T04:23:42.491Z,950.2261
2023-04-20T04:24:43.962Z,950.2169
2023-04-20T04:25:45.459Z,950.1746
2023-04-20T04:26:46.866Z,950.1339
2023-04-20T04:27:48.330Z,950.1100
2023-04-20T04:28:49.563Z,950.0839
2023-04-20T04:29:51.178Z,950.0677
2023-04-20T04:30:52.645Z,950.0854
2023-04-20T04:31:54.198Z,950.1138
2023-04-20T04:32:55.532Z,950.1246
2023-04-20T04:33:56.781Z,950.1061
2023-04-20T04:34:58.152Z,950.1000
2023-04-20T04:35:59.715Z,950.0969
2023-04-20T04:37:01.136Z,950.1146
2023-04-20T04:38:02.541Z,950.1185
2023-04-20T04:39:03.938Z,950.1169
2023-04-20T04:40:05.432Z,950.1123
2023-04-20T04:41:06.875Z,950.0862
2023-04-20T04:42:08.145Z,950.0500
2023-04-20T04:43:09.631Z,950.0316
2023-04-20T04:44:11.156Z,950.0277
2023-04-20T04:45:12.513Z,950.0423
2023-04-20T04:46:14.044Z,950.0431
2023-04-20T04:47:15.380Z,950.0723
2023-04-20T04:48:16.771Z,950.0931
2023-04-20T04:49:18.366Z,950.1008
2023-04-20T04:50:19.606Z,950.1023
2023-04-20T04:51:21.150Z,950.1123
2023-04-20T04:52:22.421Z,950.1370
2023-04-20T04:53:23.957Z,950.0939
2023-04-20T04:54:25.340Z,950.0577
2023-04-20T04:55:26.825Z,950.0346
2023-04-20T04:56:28.243Z,949.9900
2023-04-20T04:57:29.643Z,949.9323
2023-04-20T04:58:31.035Z,949.8593
2023-04-20T04:59:32.486Z,949.8777
2023-04-20T05:00:33.877Z,949.9200
2023-04-20T05:01:35.414Z,949.9584
2023-04-20T05:02:37.245Z,950.0146
2023-04-20T05:03:38.341Z,950.0715
2023-04-20T05:04:39.667Z,950.0800
2023-04-20T05:05:41.056Z,950.0577
2023-04-20T05:06:42.554Z,950.0461
2023-04-20T05:07:43.957Z,950.0461
2023-04-20T05:08:45.347Z,950.0377
2023-04-20T05:09:46.748Z,950.0192
2023-04-20T05:10:48.134Z,950.0054
2023-04-20T05:11:49.605Z,950.0070
2023-04-20T05:12:51.089Z,950.0123
2023-04-20T05:13:52.507Z,949.9992
2023-04-20T05:14:53.889Z,949.9861
2023-04-20T05:15:55.395Z,949.9854
2023-04-20T05:16:56.738Z,949.9900
2023-04-20T05:17:58.186Z,949.9962
2023-04-20T05:18:59.564Z,950.0054
2023-04-20T05:20:01.030Z,949.9946
2023-04-20T05:21:02.470Z,950.0023
2023-04-20T05:22:04.013Z,950.0346
2023-04-20T05:23:05.487Z,950.0538
2023-04-20T05:24:06.754Z,950.0939
2023-04-20T05:25:08.196Z,950.0800
2023-04-20T05:26:09.638Z,950.0338
2023-04-20T05:27:11.026Z,949.9684
2023-04-20T05:28:12.488Z,949.9470
2023-04-20T05:29:13.805Z,949.9192
2023-04-20T05:30:20.315Z,949.9223
2023-04-20T05:31:16.719Z,950.0117
2023-04-20T05:32:18.272Z,950.0692
2023-04-20T05:33:19.611Z,950.0662
2023-04-20T05:34:20.976Z,950.0785
2023-04-20T05:35:22.433Z,950.0984
2023-04-20T05:36:23.873Z,949.9977
2023-04-20T05:37:25.166Z,950.0023
2023-04-20T05:38:26.590Z,949.9769
2023-04-20T05:39:28.141Z,949.9600
2023-04-20T05:40:29.571Z,949.9254
2023-04-20T05:41:30.998Z,949.8962
2023-04-20T05:42:32.451Z,949.9354
2023-04-20T05:43:33.809Z,949.9908
2023-04-20T05:44:35.251Z,950.0715
2023-04-20T05:45:36.736Z,950.0908
2023-04-20T05:46:38.113Z,950.0808
2023-04-20T05:47:39.669Z,950.0623
2023-04-20T05:48:40.933Z,950.0592
2023-04-20T05:49:42.444Z,950.0477
2023-04-20T05:50:43.893Z,950.0538
2023-04-20T05:51:45.318Z,950.0269
2023-04-20T05:52:46.808Z,949.9885
2023-04-20T05:53:48.207Z,949.9562
2023-04-20T05:54:49.541Z,949.9454
2023-04-20T05:55:50.979Z,949.9631
2023-04-20T05:56:52.506Z,949.9723
2023-04-20T05:57:53.911Z,949.9769
2023-04-20T05:58:55.399Z,949.9846
2023-04-20T05:59:56.815Z,950.0162
2023-04-20T06:00:58.198Z,950.0638
2023-04-20T06:01:59.728Z,950.0961
2023-04-20T06:03:01.309Z,950.0923
2023-04-20T06:04:02.879Z,950.1000
2023-04-20T06:05:03.928Z,950.1238
2023-04-20T06:06:05.415Z,950.1423
2023-04-20T06:07:06.805Z,950.1292
2023-04-20T06:08:08.259Z,950.1262
2023-04-20T06:09:09.696Z,950.0884
2023-04-20T06:10:11.113Z,950.0546
2023-04-20T06:11:12.469Z,950.0562
2023-04-20T06:12:13.945Z,950.0154
2023-04-20T06:13:15.412Z,950.0215
2023-04-20T06:14:17.273Z,950.0377
2023-04-20T06:15:18.218Z,950.0708
2023-04-20T06:16:19.688Z,950.0708
2023-04-20T06:17:21.091Z,950.0085
2023-04-20T06:18:22.594Z,949.9738
2023-04-20T06:19:23.994Z,949.9777
2023-04-20T06:20:25.409Z,949.9738
2023-04-20T06:21:26.837Z,949.9631
2023-04-20T06:22:28.288Z,949.9131
2023-04-20T06:23:29.630Z,949.8777
2023-04-20T06:24:31.039Z,949.8831
2023-04-20T06:25:32.492Z,949.9200
2023-04-20T06:26:33.850Z,949.9354
2023-04-20T06:27:35.376Z,949.9269
2023-04-20T06:28:36.844Z,949.9077
2023-04-20T06:29:38.319Z,949.8977
2023-04-20T06:30:39.568Z,949.9300
2023-04-20T06:31:41.137Z,949.9300
2023-04-20T06:32:42.552Z,949.9592
2023-04-20T06:33:43.925Z,949.9769
2023-04-20T06:34:45.413Z,949.9708
2023-04-20T06:35:46.777Z,949.9600
2023-04-20T06:36:48.198Z,949.9877
2023-04-20T06:37:49.665Z,949.9923
2023-04-20T06:38:51.038Z,949.9985
2023-04-20T06:39:52.559Z,949.9954
2023-04-20T06:40:53.956Z,949.9815
2023-04-20T06:41:55.345Z,949.9777
2023-04-20T06:42:56.702Z,950.0023
2023-04-20T06:43:58.241Z,950.0070
2023-04-20T06:44:59.636Z,950.0000
2023-04-20T06:46:01.085Z,949.9977
2023-04-20T06:47:02.635Z,949.9938
2023-04-20T06:48:03.954Z,949.9938
2023-04-20T06:49:05.356Z,950.0239
2023-04-20T06:50:06.854Z,949.9992
2023-04-20T06:51:08.247Z,949.9815
2023-04-20T06:52:09.618Z,949.9738
2023-04-20T06:53:11.073Z,949.9508
2023-04-20T06:54:12.524Z,949.9431
2023-04-20T06:55:13.891Z,949.9608
2023-04-20T06:56:15.263Z,949.9138
2023-04-20T06:57:16.768Z,949.9223
2023-04-20T06:58:18.168Z,949.9185
2023-04-20T06:59:19.894Z,949.8730
2023-04-20T07:00:21.094Z,949.9169
2023-04-20T07:01:22.635Z,949.9362
2023-04-20T07:02:24.031Z,949.9292
2023-04-20T07:03:25.578Z,949.9192
2023-04-20T07:04:26.817Z,949.9031
2023-04-20T07:05:28.231Z,949.8846
2023-04-20T07:06:29.570Z,949.8985
2023-04-20T07:07:31.057Z,949.9169
2023-04-20T07:08:32.449Z,949.9108
2023-04-20T07:09:33.987Z,949.8977
2023-04-20T07:10:35.362Z,949.8577
2023-04-20T07:11:36.759Z,949.8408
2023-04-20T07:12:38.540Z,949.8423
2023-04-20T07:13:39.672Z,949.8515
2023-04-20T07:14:41.111Z,949.8531
2023-04-20T07:15:42.526Z,949.8270
2023-04-20T07:16:43.899Z,949.8085
2023-04-20T07:17:45.438Z,949.7823
2023-04-20T07:18:46.850Z,949.7715
2023-04-20T07:19:48.234Z,949.7953
2023-04-20T07:20:49.658Z,949.8200
2023-04-20T07:21:51.061Z,949.8270
2023-04-20T07:22:52.497Z,949.8138
2023-04-20T07:23:53.903Z,949.8177
2023-04-20T07:24:55.404Z,949.8439
2023-04-20T07:25:56.845Z,949.8615
2023-04-20T07:26:58.171Z,949.9161
2023-04-20T07:27:59.709Z,949.9046
2023-04-20T07:29:01.081Z,949.8808
2023-04-20T07:30:02.528Z,949.8931
2023-04-20T07:31:03.887Z,949.9431
2023-04-20T07:32:05.385Z,949.9362
2023-04-20T07:33:06.805Z,949.9092
2023-04-20T07:34:08.246Z,949.8492
2023-04-20T07:35:09.703Z,949.7700
2023-04-20T07:36:11.040Z,949.7823
2023-04-20T07:37:12.524Z,949.8377
2023-04-20T07:38:13.982Z,949.8569
2023-04-20T07:39:15.697Z,949.8500
2023-04-20T07:40:16.848Z,949.7700
2023-04-20T07:41:18.323Z,949.7469
2023-04-20T07:42:19.644Z,949.8300
2023-04-20T07:43:21.125Z,949.8593
2023-04-20T07:44:22.503Z,949.9154
2023-04-20T07:45:24.014Z,949.9169
2023-04-20T07:46:25.425Z,949.8569
2023-04-20T07:47:26.855Z,949.8946
2023-04-20T07:48:28.267Z,949.9562
2023-04-20T07:49:29.720Z,949.9654
2023-04-20T07:50:31.219Z,949.9423
2023-04-20T07:51:32.656Z,949.8884
2023-04-20T07:52:33.896Z,949.8000
2023-04-20T07:53:35.455Z,949.8223
2023-04-20T07:54:36.855Z,949.8354
2023-04-20T07:55:38.278Z,949.8531
2023-04-20T07:56:39.749Z,949.8669
2023-04-20T07:57:41.086Z,949.8900
2023-04-20T07:58:42.510Z,949.9293
2023-04-20T07:59:43.995Z,950.0461
2023-04-20T08:00:45.398Z,950.1093
2023-04-20T08:01:46.840Z,950.0969
2023-04-20T08:02:48.307Z,950.0615
2023-04-20T08:03:49.850Z,950.0115
2023-04-20T08:04:51.396Z,949.9423
2023-04-20T08:05:52.563Z,949.9116
2023-04-20T08:06:53.944Z,949.8377
2023-04-20T08:07:55.315Z,949.7700
2023-04-20T08:08:56.794Z,949.7708
2023-04-20T08:09:58.197Z,949.7708
2023-04-20T08:10:59.685Z,949.8169
2023-04-20T08:12:01.135Z,949.9054
2023-04-20T08:13:02.545Z,949.9646
2023-04-20T08:14:04.037Z,950.0454
2023-04-20T08:15:05.360Z,950.0485
2023-04-20T08:16:07.562Z,950.0469
2023-04-20T08:17:08.192Z,950.0700
2023-04-20T08:18:09.624Z,950.0469
2023-04-20T08:19:11.020Z,949.9985
2023-04-20T08:20:12.476Z,949.9269
2023-04-20T08:21:14.014Z,949.8384
2023-04-20T08:22:15.406Z,949.7692
2023-04-20T08:23:16.730Z,949.7285
2023-04-20T08:24:18.480Z,949.7277
2023-04-20T08:25:19.546Z,949.7623
2023-04-20T08:26:21.157Z,949.7969
2023-04-20T08:27:22.484Z,949.8085
2023-04-20T08:28:33.426Z,949.8154
2023-04-20T08:29:25.289Z,949.8983
2023-04-20T08:30:26.740Z,949.9554
2023-04-20T08:31:28.292Z,949.9377
2023-04-20T08:32:29.686Z,949.9161
2023-04-20T08:33:31.019Z,949.8946
2023-04-20T08:34:32.450Z,949.9177
2023-04-20T08:35:33.866Z,949.8985
2023-04-20T08:36:35.267Z,949.8461
2023-04-20T08:37:36.768Z,949.7885
2023-04-20T08:38:38.124Z,949.7492
2023-04-20T08:39:39.636Z,949.7315
2023-04-20T08:40:40.936Z,949.7792
2023-04-20T08:41:42.457Z,949.7938
2023-04-20T08:42:43.856Z,949.7462
2023-04-20T08:43:45.298Z,949.7169
2023-04-20T08:44:46.753Z,949.6700
2023-04-20T08:45:48.122Z,949.7023
2023-04-20T08:46:49.603Z,949.6985
2023-04-20T08:47:51.050Z,949.7077
2023-04-20T08:48:52.248Z,949.7354
2023-04-20T08:49:53.786Z,949.6761
2023-04-20T08:50:55.269Z,949.6592
2023-04-20T08:51:56.685Z,949.6539
2023-04-20T08:52:58.089Z,949.6823
2023-04-20T08:53:59.537Z,949.6793
2023-04-20T08:55:00.848Z,949.6638
2023-04-20T08:56:02.399Z,949.6093
2023-04-20T08:57:03.868Z,949.5884
2023-04-20T08:58:05.279Z,949.5908
2023-04-20T08:59:06.602Z,949.5608
2023-04-20T09:00:08.070Z,949.5239
2023-04-20T09:01:09.617Z,949.5200
2023-04-20T09:02:11.136Z,949.4362
2023-04-20T09:03:12.569Z,949.4161
2023-04-20T09:04:14.069Z,949.4677
2023-04-20T09:05:15.215Z,949.4700
2023-04-20T09:06:16.621Z,949.4569
2023-04-20T09:07:18.041Z,949.4292
2023-04-20T09:08:19.524Z,949.4330
2023-04-20T09:09:20.900Z,949.4431
2023-04-20T09:10:22.397Z,949.4292
2023-04-20T09:11:23.731Z,949.4016
2023-04-20T09:12:25.313Z,949.3992
2023-04-20T09:13:26.696Z,949.3615
2023-04-20T09:14:28.052Z,949.3654
2023-04-20T09:15:29.888Z,949.3454
2023-04-20T09:16:30.934Z,949.2946
2023-04-20T09:17:32.411Z,949.2715
2023-04-20T09:18:33.811Z,949.2723
2023-04-20T09:19:35.182Z,949.2492
2023-04-20T09:20:36.610Z,949.2869
2023-04-20T09:21:38.015Z,949.2823
2023-04-20T09:22:39.516Z,949.3000
2023-04-20T09:23:40.896Z,949.2908
2023-04-20T09:24:42.237Z,949.2723
2023-04-20T09:25:43.756Z,949.2747
2023-04-20T09:26:45.257Z,949.2731
2023-04-20T09:27:46.599Z,949.2569
